Flag for Italy

Past Weather in 40°50'26.8"N, 8°23'36.6"E, Italy — Yesterday and Last 2 Weeks

Currently: 72 °F. Passing clouds. (Weather station: Alghero Airport, Italy). See more current weather

Past Weather in 40°50'26.8"N, 8°23'36.6"E — Graph

°F

40°50'26.8"N, 8°23'36.6"E Temperature Yesterday

Maximum temperature yesterday: 79 °F (at 10:50 am)
Minimum temperature yesterday: 54 °F (at 6:20 am)
Average temperature yesterday: 68 °F

High & Low Weather Summary for the Past Weeks

 TemperatureHumidityPressure
High82 °F (May 19, 1:50 pm)100% (May 13, 9:50 pm)30.09 "Hg (May 13, 9:50 pm)
Low52 °F (May 23, 6:50 am)26% (May 24, 12:50 pm)29.68 "Hg (May 15, 6:20 am)
Average67 °F76%29.91 "Hg
* Reported May 13 8:20 am — May 28 8:20 am, 40°50'26.8"N, 8°23'36.6"E. Weather by CustomWeather, © 2024

Note: Actual official high and low records may vary slightly from our data, if they occured in-between our weather recording intervals... More about our weather records

40°50'26.8"N, 8°23'36.6"E Weather History for the Previous 24 Hours

Scroll right to see more
 ConditionsComfort  
Time TempWeatherWind HumidityBarometerVisibility
8:20 am
Tue, May 28
66 °FPassing clouds.3 mph78%30.01 "HgN/A
7:50 am63 °FSunny.3 mph83%30.01 "Hg10 mi
7:20 am59 °FSunny.2 mph88%30.01 "Hg10 mi
6:50 am57 °FSunny.2 mph94%30.01 "Hg10 mi
6:20 am57 °FSunny.1 mph94%30.01 "Hg10 mi
5:50 am57 °FClear.1 mph94%30.01 "Hg10 mi
5:20 am57 °FClear.2 mph100%30.01 "Hg10 mi
4:50 am59 °FClear.2 mph94%30.01 "Hg10 mi
4:20 am57 °FClear.2 mph100%30.01 "Hg10 mi
3:50 am59 °FClear.3 mph94%30.04 "Hg10 mi
3:20 am61 °FClear.1 mph94%30.04 "Hg10 mi
2:20 am61 °FClear.1 mph94%30.04 "Hg10 mi
1:50 am63 °FClear.1 mph94%30.04 "Hg10 mi
1:20 am61 °FClear.1 mph94%30.04 "Hg10 mi
12:50 am63 °FClear.2 mph88%30.07 "Hg10 mi
12:20 am63 °FClear.2 mph88%30.04 "Hg10 mi
11:50 pm
Mon, May 27
63 °FClear.5 mph83%30.04 "Hg10 mi
11:20 pm66 °FClear.2 mph68%30.04 "Hg10 mi
10:50 pm66 °FPassing clouds.3 mph68%30.04 "HgN/A
10:20 pm66 °FClear.2 mph73%30.01 "Hg10 mi
9:50 pm66 °FClear.6 mph73%30.01 "Hg10 mi
8:50 pm70 °FClear.2 mph60%29.98 "Hg10 mi
8:20 pm72 °FSunny.5 mph57%29.98 "Hg10 mi
7:50 pm73 °FSunny.8 mph50%29.98 "Hg10 mi
7:20 pm79 °FSunny.2 mph45%29.98 "Hg10 mi
6:50 pm79 °FPassing clouds.3 mph45%30.01 "HgN/A
6:20 pm79 °FSunny.2 mph39%30.01 "Hg10 mi
5:50 pm77 °FSunny.2 mph47%30.01 "Hg10 mi
5:20 pm75 °FPassing clouds.3 mph47%30.04 "HgN/A
4:50 pm73 °FPassing clouds.3 mph47%30.04 "HgN/A
4:20 pm73 °FSunny.8 mph57%30.04 "Hg10 mi
3:20 pm75 °FPassing clouds.3 mph57%30.07 "HgN/A
2:50 pm75 °FPassing clouds.8 mph54%30.07 "HgN/A
2:20 pm75 °FPassing clouds.10 mph54%30.07 "HgN/A
1:50 pm75 °FPassing clouds.9 mph57%30.07 "HgN/A
1:20 pm75 °FSunny.9 mph57%30.07 "Hg10 mi
12:50 pm79 °FPassing clouds.6 mph45%30.07 "HgN/A
12:20 pm77 °FSunny.9 mph54%30.07 "Hg10 mi
11:50 am77 °FSunny.7 mph47%30.07 "Hg10 mi
11:20 am79 °FSunny.6 mph45%30.07 "Hg10 mi
10:50 am79 °FSunny.2 mph37%30.07 "Hg10 mi
10:20 am77 °FSunny.2 mph39%30.07 "Hg10 mi
9:50 am75 °FSunny.2 mph41%30.07 "Hg10 mi
9:20 am70 °FPassing clouds.3 mph60%30.07 "HgN/A
Weather by CustomWeather, © 2024

See weather overview